sensor_id;sensor_type;location;lat;lon;timestamp;temperature;humidity
60293;DHT22;52402;52.670;6.750;2022-08-20T00:00:34;19.30;99.90
60293;DHT22;52402;52.670;6.750;2022-08-20T00:03:04;19.40;99.90
60293;DHT22;52402;52.670;6.750;2022-08-20T00:05:34;19.30;99.90
60293;DHT22;52402;52.670;6.750;2022-08-20T00:08:02;19.30;99.90
60293;DHT22;52402;52.670;6.750;2022-08-20T00:10:30;19.30;99.90
60293;DHT22;52402;52.670;6.750;2022-08-20T00:12:56;19.30;99.90
60293;DHT22;52402;52.670;6.750;2022-08-20T00:15:25;19.30;99.90
60293;DHT22;52402;52.670;6.750;2022-08-20T00:17:53;19.20;99.90
60293;DHT22;52402;52.670;6.750;2022-08-20T00:20:22;19.20;99.90
60293;DHT22;52402;52.670;6.750;2022-08-20T00:22:49;19.20;99.90
60293;DHT22;52402;52.670;6.750;2022-08-20T00:25:15;19.20;99.90
60293;DHT22;52402;52.670;6.750;2022-08-20T00:27:41;19.20;99.90
60293;DHT22;52402;52.670;6.750;2022-08-20T00:30:09;19.20;99.90
60293;DHT22;52402;52.670;6.750;2022-08-20T00:32:46;19.20;99.90
60293;DHT22;52402;52.670;6.750;2022-08-20T00:35:15;19.20;99.90
60293;DHT22;52402;52.670;6.750;2022-08-20T00:37:41;19.20;99.90
60293;DHT22;52402;52.670;6.750;2022-08-20T00:40:09;19.20;99.90
60293;DHT22;52402;52.670;6.750;2022-08-20T00:42:45;19.20;99.90
60293;DHT22;52402;52.670;6.750;2022-08-20T00:45:12;19.10;99.90
60293;DHT22;52402;52.670;6.750;2022-08-20T00:47:38;19.10;99.90
60293;DHT22;52402;52.670;6.750;2022-08-20T00:50:12;19.10;99.90
60293;DHT22;52402;52.670;6.750;2022-08-20T00:52:41;19.10;99.90
60293;DHT22;52402;52.670;6.750;2022-08-20T00:55:08;19.10;99.90
60293;DHT22;52402;52.670;6.750;2022-08-20T00:57:40;19.10;99.90
60293;DHT22;52402;52.670;6.750;2022-08-20T01:00:18;19.10;99.90
60293;DHT22;52402;52.670;6.750;2022-08-20T01:02:44;19.10;99.90
60293;DHT22;52402;52.670;6.750;2022-08-20T01:05:12;19.10;99.90
60293;DHT22;52402;52.670;6.750;2022-08-20T01:07:40;19.10;99.90
60293;DHT22;52402;52.670;6.750;2022-08-20T01:10:08;19.00;99.90
60293;DHT22;52402;52.670;6.750;2022-08-20T01:12:37;19.00;99.90
60293;DHT22;52402;52.670;6.750;2022-08-20T01:15:05;19.00;99.90
60293;DHT22;52402;52.670;6.750;2022-08-20T01:17:34;19.00;99.90
60293;DHT22;52402;52.670;6.750;2022-08-20T01:20:07;19.00;99.90
60293;DHT22;52402;52.670;6.750;2022-08-20T01:23:06;19.00;99.90
60293;DHT22;52402;52.670;6.750;2022-08-20T01:28:37;18.90;99.90
60293;DHT22;52402;52.670;6.750;2022-08-20T01:31:05;18.90;99.90
60293;DHT22;52402;52.670;6.750;2022-08-20T01:33:32;18.90;99.90
60293;DHT22;52402;52.670;6.750;2022-08-20T01:35:58;18.90;99.90
60293;DHT22;52402;52.670;6.750;2022-08-20T01:38:26;18.90;99.90
60293;DHT22;52402;52.670;6.750;2022-08-20T01:41:14;18.90;99.90
60293;DHT22;52402;52.670;6.750;2022-08-20T01:43:45;18.90;99.90
60293;DHT22;52402;52.670;6.750;2022-08-20T01:46:11;18.90;99.90
60293;DHT22;52402;52.670;6.750;2022-08-20T01:48:39;18.90;99.90
60293;DHT22;52402;52.670;6.750;2022-08-20T01:51:13;18.90;99.90
60293;DHT22;52402;52.670;6.750;2022-08-20T01:53:45;18.90;99.90
60293;DHT22;52402;52.670;6.750;2022-08-20T01:56:14;18.80;99.90
60293;DHT22;52402;52.670;6.750;2022-08-20T01:58:46;18.80;99.90
60293;DHT22;52402;52.670;6.750;2022-08-20T02:01:28;18.80;99.90
60293;DHT22;52402;52.670;6.750;2022-08-20T02:03:55;18.80;99.90
60293;DHT22;52402;52.670;6.750;2022-08-20T02:06:22;18.70;99.90
60293;DHT22;52402;52.670;6.750;2022-08-20T02:08:51;18.70;99.90
60293;DHT22;52402;52.670;6.750;2022-08-20T02:11:18;18.70;99.90
60293;DHT22;52402;52.670;6.750;2022-08-20T02:13:43;18.70;99.90
60293;DHT22;52402;52.670;6.750;2022-08-20T02:16:09;18.70;99.90
60293;DHT22;52402;52.670;6.750;2022-08-20T02:18:35;18.70;99.90
60293;DHT22;52402;52.670;6.750;2022-08-20T02:21:01;18.70;99.90
60293;DHT22;52402;52.670;6.750;2022-08-20T02:23:27;18.70;99.90
60293;DHT22;52402;52.670;6.750;2022-08-20T02:25:52;18.70;99.90
60293;DHT22;52402;52.670;6.750;2022-08-20T02:28:18;18.60;99.90
60293;DHT22;52402;52.670;6.750;2022-08-20T02:30:49;18.60;99.90
60293;DHT22;52402;52.670;6.750;2022-08-20T02:33:17;18.60;99.90
60293;DHT22;52402;52.670;6.750;2022-08-20T02:35:46;18.60;99.90
60293;DHT22;52402;52.670;6.750;2022-08-20T02:38:12;18.60;99.90
60293;DHT22;52402;52.670;6.750;2022-08-20T02:40:38;18.50;99.90
60293;DHT22;52402;52.670;6.750;2022-08-20T02:43:04;18.50;99.90
60293;DHT22;52402;52.670;6.750;2022-08-20T02:45:31;18.50;99.90
60293;DHT22;52402;52.670;6.750;2022-08-20T02:48:01;18.50;99.90
60293;DHT22;52402;52.670;6.750;2022-08-20T02:50:27;18.40;99.90
60293;DHT22;52402;52.670;6.750;2022-08-20T02:52:53;18.40;99.90
60293;DHT22;52402;52.670;6.750;2022-08-20T02:55:19;18.40;99.90
60293;DHT22;52402;52.670;6.750;2022-08-20T02:57:45;18.40;99.90
60293;DHT22;52402;52.670;6.750;2022-08-20T03:00:17;18.30;99.90
60293;DHT22;52402;52.670;6.750;2022-08-20T03:02:43;18.30;99.90
60293;DHT22;52402;52.670;6.750;2022-08-20T03:05:10;18.30;99.90
60293;DHT22;52402;52.670;6.750;2022-08-20T03:07:44;18.20;99.90
60293;DHT22;52402;52.670;6.750;2022-08-20T03:10:10;18.20;99.90
60293;DHT22;52402;52.670;6.750;2022-08-20T03:12:36;18.20;99.90
60293;DHT22;52402;52.670;6.750;2022-08-20T03:15:04;18.10;99.90
60293;DHT22;52402;52.670;6.750;2022-08-20T03:17:30;18.10;99.90
60293;DHT22;52402;52.670;6.750;2022-08-20T03:19:55;18.10;99.90
60293;DHT22;52402;52.670;6.750;2022-08-20T03:22:21;18.00;99.90
60293;DHT22;52402;52.670;6.750;2022-08-20T03:24:47;18.00;99.90
60293;DHT22;52402;52.670;6.750;2022-08-20T03:27:13;18.00;99.90
60293;DHT22;52402;52.670;6.750;2022-08-20T03:29:38;18.00;99.90
60293;DHT22;52402;52.670;6.750;2022-08-20T03:32:04;18.00;99.90
60293;DHT22;52402;52.670;6.750;2022-08-20T03:34:30;18.00;99.90
60293;DHT22;52402;52.670;6.750;2022-08-20T03:36:55;18.00;99.90
60293;DHT22;52402;52.670;6.750;2022-08-20T03:39:21;18.00;99.90
60293;DHT22;52402;52.670;6.750;2022-08-20T03:41:46;17.90;99.90
60293;DHT22;52402;52.670;6.750;2022-08-20T03:44:12;17.90;99.90
60293;DHT22;52402;52.670;6.750;2022-08-20T03:46:38;17.90;99.90
60293;DHT22;52402;52.670;6.750;2022-08-20T03:49:04;17.90;99.90
60293;DHT22;52402;52.670;6.750;2022-08-20T03:51:31;17.80;99.90
60293;DHT22;52402;52.670;6.750;2022-08-20T03:53:57;17.80;99.90
60293;DHT22;52402;52.670;6.750;2022-08-20T03:56:23;17.80;99.90
60293;DHT22;52402;52.670;6.750;2022-08-20T03:58:49;17.70;99.90
60293;DHT22;52402;52.670;6.750;2022-08-20T04:01:15;17.70;99.90
60293;DHT22;52402;52.670;6.750;2022-08-20T04:03:40;17.60;99.90
60293;DHT22;52402;52.670;6.750;2022-08-20T04:06:06;17.60;99.90
60293;DHT22;52402;52.670;6.750;2022-08-20T04:08:32;17.60;99.90
60293;DHT22;52402;52.670;6.750;2022-08-20T04:10:58;17.60;99.90
60293;DHT22;52402;52.670;6.750;2022-08-20T04:13:25;17.60;99.90
60293;DHT22;52402;52.670;6.750;2022-08-20T04:15:52;17.60;99.90
60293;DHT22;52402;52.670;6.750;2022-08-20T04:18:21;17.60;99.90
60293;DHT22;52402;52.670;6.750;2022-08-20T04:20:50;17.60;99.90
60293;DHT22;52402;52.670;6.750;2022-08-20T04:23:16;17.60;99.90
60293;DHT22;52402;52.670;6.750;2022-08-20T04:25:43;17.60;99.90
60293;DHT22;52402;52.670;6.750;2022-08-20T04:28:12;17.70;99.90
60293;DHT22;52402;52.670;6.750;2022-08-20T04:30:39;17.60;99.90
60293;DHT22;52402;52.670;6.750;2022-08-20T04:33:07;17.60;99.90
60293;DHT22;52402;52.670;6.750;2022-08-20T04:35:33;17.60;99.90
60293;DHT22;52402;52.670;6.750;2022-08-20T04:38:07;17.60;99.90
60293;DHT22;52402;52.670;6.750;2022-08-20T04:40:35;17.70;99.90
60293;DHT22;52402;52.670;6.750;2022-08-20T04:43:31;17.60;99.90
60293;DHT22;52402;52.670;6.750;2022-08-20T04:46:06;17.70;99.90
60293;DHT22;52402;52.670;6.750;2022-08-20T04:48:35;17.60;99.90
60293;DHT22;52402;52.670;6.750;2022-08-20T04:51:04;17.60;99.90
60293;DHT22;52402;52.670;6.750;2022-08-20T04:53:30;17.60;99.90
60293;DHT22;52402;52.670;6.750;2022-08-20T04:55:58;17.60;99.90
60293;DHT22;52402;52.670;6.750;2022-08-20T04:58:31;17.60;99.90
60293;DHT22;52402;52.670;6.750;2022-08-20T05:01:00;17.60;99.90
60293;DHT22;52402;52.670;6.750;2022-08-20T05:03:26;17.60;99.90
60293;DHT22;52402;52.670;6.750;2022-08-20T05:05:52;17.50;99.90
60293;DHT22;52402;52.670;6.750;2022-08-20T05:08:19;17.50;99.90
60293;DHT22;52402;52.670;6.750;2022-08-20T05:10:47;17.50;99.90
60293;DHT22;52402;52.670;6.750;2022-08-20T05:13:13;17.50;99.90
60293;DHT22;52402;52.670;6.750;2022-08-20T05:15:39;17.50;99.90
60293;DHT22;52402;52.670;6.750;2022-08-20T05:18:06;17.40;99.90
60293;DHT22;52402;52.670;6.750;2022-08-20T05:20:38;17.50;99.90
60293;DHT22;52402;52.670;6.750;2022-08-20T05:23:06;17.50;99.90
60293;DHT22;52402;52.670;6.750;2022-08-20T05:25:32;17.50;99.90
60293;DHT22;52402;52.670;6.750;2022-08-20T05:28:04;17.50;99.90
60293;DHT22;52402;52.670;6.750;2022-08-20T05:30:31;17.50;99.90
60293;DHT22;52402;52.670;6.750;2022-08-20T05:33:01;17.50;99.90
60293;DHT22;52402;52.670;6.750;2022-08-20T05:35:29;17.50;99.90
60293;DHT22;52402;52.670;6.750;2022-08-20T05:37:55;17.50;99.90
60293;DHT22;52402;52.670;6.750;2022-08-20T05:40:22;17.50;99.90
60293;DHT22;52402;52.670;6.750;2022-08-20T05:42:49;17.50;99.90
60293;DHT22;52402;52.670;6.750;2022-08-20T05:45:16;17.50;99.90
60293;DHT22;52402;52.670;6.750;2022-08-20T05:47:42;17.40;99.90
60293;DHT22;52402;52.670;6.750;2022-08-20T05:50:11;17.40;99.90
60293;DHT22;52402;52.670;6.750;2022-08-20T05:52:38;17.40;99.90
60293;DHT22;52402;52.670;6.750;2022-08-20T05:55:05;17.40;99.90
60293;DHT22;52402;52.670;6.750;2022-08-20T05:57:31;17.40;99.90
60293;DHT22;52402;52.670;6.750;2022-08-20T05:59:59;17.40;99.90
60293;DHT22;52402;52.670;6.750;2022-08-20T06:02:25;17.40;99.90
60293;DHT22;52402;52.670;6.750;2022-08-20T06:05:11;17.40;99.90
60293;DHT22;52402;52.670;6.750;2022-08-20T06:07:37;17.40;99.90
60293;DHT22;52402;52.670;6.750;2022-08-20T06:10:05;17.40;99.90
60293;DHT22;52402;52.670;6.750;2022-08-20T06:12:31;17.40;99.90
60293;DHT22;52402;52.670;6.750;2022-08-20T06:14:57;17.50;99.90
60293;DHT22;52402;52.670;6.750;2022-08-20T06:17:23;17.50;99.90
60293;DHT22;52402;52.670;6.750;2022-08-20T06:19:49;17.60;99.90
60293;DHT22;52402;52.670;6.750;2022-08-20T06:22:15;17.60;99.90
60293;DHT22;52402;52.670;6.750;2022-08-20T06:24:41;17.70;99.90
60293;DHT22;52402;52.670;6.750;2022-08-20T06:27:06;17.80;99.90
60293;DHT22;52402;52.670;6.750;2022-08-20T06:29:32;18.00;99.90
60293;DHT22;52402;52.670;6.750;2022-08-20T06:32:00;18.00;99.90
60293;DHT22;52402;52.670;6.750;2022-08-20T06:34:26;18.00;99.90
60293;DHT22;52402;52.670;6.750;2022-08-20T06:36:56;18.00;99.90
60293;DHT22;52402;52.670;6.750;2022-08-20T06:39:23;18.10;99.90
60293;DHT22;52402;52.670;6.750;2022-08-20T06:41:49;18.10;99.90
60293;DHT22;52402;52.670;6.750;2022-08-20T06:44:16;18.20;99.90
60293;DHT22;52402;52.670;6.750;2022-08-20T06:46:42;18.20;99.90
60293;DHT22;52402;52.670;6.750;2022-08-20T06:49:08;18.30;99.90
60293;DHT22;52402;52.670;6.750;2022-08-20T06:51:34;18.30;99.90
60293;DHT22;52402;52.670;6.750;2022-08-20T06:54:02;18.30;99.90
60293;DHT22;52402;52.670;6.750;2022-08-20T06:56:28;18.30;99.90
60293;DHT22;52402;52.670;6.750;2022-08-20T06:58:54;18.30;99.90
60293;DHT22;52402;52.670;6.750;2022-08-20T07:01:20;18.40;99.90
60293;DHT22;52402;52.670;6.750;2022-08-20T07:03:47;18.50;99.90
60293;DHT22;52402;52.670;6.750;2022-08-20T07:06:15;18.50;99.90
60293;DHT22;52402;52.670;6.750;2022-08-20T07:08:41;18.60;99.90
60293;DHT22;52402;52.670;6.750;2022-08-20T07:11:07;18.60;99.90
60293;DHT22;52402;52.670;6.750;2022-08-20T07:13:33;18.70;99.90
60293;DHT22;52402;52.670;6.750;2022-08-20T07:16:01;18.70;99.90
60293;DHT22;52402;52.670;6.750;2022-08-20T07:18:27;18.70;99.90
60293;DHT22;52402;52.670;6.750;2022-08-20T07:20:52;18.70;99.90
60293;DHT22;52402;52.670;6.750;2022-08-20T07:23:19;18.60;99.90
60293;DHT22;52402;52.670;6.750;2022-08-20T07:25:44;18.60;99.90
60293;DHT22;52402;52.670;6.750;2022-08-20T07:28:15;18.60;99.90
60293;DHT22;52402;52.670;6.750;2022-08-20T07:30:42;18.70;99.90
60293;DHT22;52402;52.670;6.750;2022-08-20T07:33:28;18.70;99.90
60293;DHT22;52402;52.670;6.750;2022-08-20T07:35:55;18.70;99.90
60293;DHT22;52402;52.670;6.750;2022-08-20T07:38:23;18.70;99.90
60293;DHT22;52402;52.670;6.750;2022-08-20T07:40:55;18.70;99.90
60293;DHT22;52402;52.670;6.750;2022-08-20T07:43:21;18.70;99.90
60293;DHT22;52402;52.670;6.750;2022-08-20T07:45:51;18.70;99.90
60293;DHT22;52402;52.670;6.750;2022-08-20T07:48:20;18.80;99.90
60293;DHT22;52402;52.670;6.750;2022-08-20T07:50:46;18.90;99.90
60293;DHT22;52402;52.670;6.750;2022-08-20T07:53:14;19.00;99.90
60293;DHT22;52402;52.670;6.750;2022-08-20T07:55:40;19.20;99.90
60293;DHT22;52402;52.670;6.750;2022-08-20T07:58:09;19.30;99.90
60293;DHT22;52402;52.670;6.750;2022-08-20T08:00:35;19.40;99.90
60293;DHT22;52402;52.670;6.750;2022-08-20T08:03:00;19.40;99.90
60293;DHT22;52402;52.670;6.750;2022-08-20T08:05:26;19.40;99.90
60293;DHT22;52402;52.670;6.750;2022-08-20T08:07:52;19.40;99.90
60293;DHT22;52402;52.670;6.750;2022-08-20T08:10:20;19.30;99.90
60293;DHT22;52402;52.670;6.750;2022-08-20T08:12:50;19.20;99.90
60293;DHT22;52402;52.670;6.750;2022-08-20T08:15:23;19.10;99.90
60293;DHT22;52402;52.670;6.750;2022-08-20T08:17:50;19.00;99.90
60293;DHT22;52402;52.670;6.750;2022-08-20T08:20:17;18.80;99.90
60293;DHT22;52402;52.670;6.750;2022-08-20T08:22:47;18.80;99.90
60293;DHT22;52402;52.670;6.750;2022-08-20T08:25:14;18.80;99.90
60293;DHT22;52402;52.670;6.750;2022-08-20T08:27:41;18.90;99.90
60293;DHT22;52402;52.670;6.750;2022-08-20T08:30:08;19.00;99.90
60293;DHT22;52402;52.670;6.750;2022-08-20T08:32:37;19.10;99.90
60293;DHT22;52402;52.670;6.750;2022-08-20T08:35:24;19.10;99.90
60293;DHT22;52402;52.670;6.750;2022-08-20T08:37:49;19.20;99.90
60293;DHT22;52402;52.670;6.750;2022-08-20T08:40:15;19.30;99.90
60293;DHT22;52402;52.670;6.750;2022-08-20T08:42:48;19.30;99.90
60293;DHT22;52402;52.670;6.750;2022-08-20T08:45:20;19.30;99.90
60293;DHT22;52402;52.670;6.750;2022-08-20T08:47:46;19.40;99.90
60293;DHT22;52402;52.670;6.750;2022-08-20T08:50:21;19.40;99.90
60293;DHT22;52402;52.670;6.750;2022-08-20T08:52:49;19.40;99.90
60293;DHT22;52402;52.670;6.750;2022-08-20T08:55:17;19.40;99.90
60293;DHT22;52402;52.670;6.750;2022-08-20T08:57:46;19.40;99.90
60293;DHT22;52402;52.670;6.750;2022-08-20T09:00:17;19.40;99.90
60293;DHT22;52402;52.670;6.750;2022-08-20T09:03:00;19.50;99.90
60293;DHT22;52402;52.670;6.750;2022-08-20T09:05:31;19.50;99.90
60293;DHT22;52402;52.670;6.750;2022-08-20T09:08:00;19.60;99.90
60293;DHT22;52402;52.670;6.750;2022-08-20T09:10:27;19.60;99.90
60293;DHT22;52402;52.670;6.750;2022-08-20T09:12:53;19.70;99.90
60293;DHT22;52402;52.670;6.750;2022-08-20T09:15:19;19.80;99.90
60293;DHT22;52402;52.670;6.750;2022-08-20T09:17:45;19.80;99.90
60293;DHT22;52402;52.670;6.750;2022-08-20T09:20:11;19.80;99.90
60293;DHT22;52402;52.670;6.750;2022-08-20T09:22:37;19.90;99.90
60293;DHT22;52402;52.670;6.750;2022-08-20T09:25:03;19.90;99.90
60293;DHT22;52402;52.670;6.750;2022-08-20T09:27:28;20.00;99.90
60293;DHT22;52402;52.670;6.750;2022-08-20T09:29:55;20.10;99.90
60293;DHT22;52402;52.670;6.750;2022-08-20T09:32:22;20.10;99.90
60293;DHT22;52402;52.670;6.750;2022-08-20T09:34:50;20.10;99.90
60293;DHT22;52402;52.670;6.750;2022-08-20T09:37:20;20.10;99.90
60293;DHT22;52402;52.670;6.750;2022-08-20T09:39:47;20.20;99.90
60293;DHT22;52402;52.670;6.750;2022-08-20T09:42:15;20.30;99.90
60293;DHT22;52402;52.670;6.750;2022-08-20T09:44:41;20.40;99.90
60293;DHT22;52402;52.670;6.750;2022-08-20T09:47:08;20.40;99.90
60293;DHT22;52402;52.670;6.750;2022-08-20T09:49:34;20.40;99.90
60293;DHT22;52402;52.670;6.750;2022-08-20T09:52:03;20.40;99.90
60293;DHT22;52402;52.670;6.750;2022-08-20T09:54:30;20.50;99.90
60293;DHT22;52402;52.670;6.750;2022-08-20T09:57:01;20.60;99.90
60293;DHT22;52402;52.670;6.750;2022-08-20T09:59:27;20.70;99.90
60293;DHT22;52402;52.670;6.750;2022-08-20T10:01:54;20.80;99.90
60293;DHT22;52402;52.670;6.750;2022-08-20T10:04:20;20.90;99.90
60293;DHT22;52402;52.670;6.750;2022-08-20T10:06:46;21.10;99.90
60293;DHT22;52402;52.670;6.750;2022-08-20T10:09:12;21.20;99.90
60293;DHT22;52402;52.670;6.750;2022-08-20T10:11:38;21.10;99.90
60293;DHT22;52402;52.670;6.750;2022-08-20T10:14:03;21.10;99.90
60293;DHT22;52402;52.670;6.750;2022-08-20T10:16:29;21.10;99.90
60293;DHT22;52402;52.670;6.750;2022-08-20T10:18:56;21.20;99.90
60293;DHT22;52402;52.670;6.750;2022-08-20T10:21:21;21.30;99.90
60293;DHT22;52402;52.670;6.750;2022-08-20T10:23:47;21.40;99.90
60293;DHT22;52402;52.670;6.750;2022-08-20T10:26:14;21.40;99.90
60293;DHT22;52402;52.670;6.750;2022-08-20T10:28:41;21.50;99.90
60293;DHT22;52402;52.670;6.750;2022-08-20T10:31:09;21.70;99.70
60293;DHT22;52402;52.670;6.750;2022-08-20T10:33:35;21.80;99.90
60293;DHT22;52402;52.670;6.750;2022-08-20T10:36:15;21.90;98.70
60293;DHT22;52402;52.670;6.750;2022-08-20T10:38:42;22.10;98.20
60293;DHT22;52402;52.670;6.750;2022-08-20T10:41:08;22.20;97.20
60293;DHT22;52402;52.670;6.750;2022-08-20T10:43:34;22.30;97.20
60293;DHT22;52402;52.670;6.750;2022-08-20T10:46:00;22.40;97.10
60293;DHT22;52402;52.670;6.750;2022-08-20T10:48:26;22.60;97.30
60293;DHT22;52402;52.670;6.750;2022-08-20T10:50:52;22.80;97.60
60293;DHT22;52402;52.670;6.750;2022-08-20T10:53:18;23.00;97.50
60293;DHT22;52402;52.670;6.750;2022-08-20T10:55:44;23.20;97.00
60293;DHT22;52402;52.670;6.750;2022-08-20T10:58:09;23.40;96.60
60293;DHT22;52402;52.670;6.750;2022-08-20T11:00:38;23.50;95.90
60293;DHT22;52402;52.670;6.750;2022-08-20T11:03:03;23.40;94.70
60293;DHT22;52402;52.670;6.750;2022-08-20T11:05:29;23.60;94.40
60293;DHT22;52402;52.670;6.750;2022-08-20T11:07:55;23.80;94.50
60293;DHT22;52402;52.670;6.750;2022-08-20T11:10:21;24.00;94.00
60293;DHT22;52402;52.670;6.750;2022-08-20T11:12:47;24.30;94.60
60293;DHT22;52402;52.670;6.750;2022-08-20T11:15:13;24.30;95.20
60293;DHT22;52402;52.670;6.750;2022-08-20T11:17:41;24.20;95.60
60293;DHT22;52402;52.670;6.750;2022-08-20T11:20:08;24.10;95.70
60293;DHT22;52402;52.670;6.750;2022-08-20T11:22:35;24.20;95.20
60293;DHT22;52402;52.670;6.750;2022-08-20T11:25:00;24.10;94.70
60293;DHT22;52402;52.670;6.750;2022-08-20T11:27:29;23.80;94.20
60293;DHT22;52402;52.670;6.750;2022-08-20T11:29:55;23.90;94.10
60293;DHT22;52402;52.670;6.750;2022-08-20T11:32:21;23.90;94.70
60293;DHT22;52402;52.670;6.750;2022-08-20T11:34:47;24.10;94.60
60293;DHT22;52402;52.670;6.750;2022-08-20T11:37:14;24.40;93.70
60293;DHT22;52402;52.670;6.750;2022-08-20T11:39:40;24.60;92.20
60293;DHT22;52402;52.670;6.750;2022-08-20T11:42:06;24.50;91.70
60293;DHT22;52402;52.670;6.750;2022-08-20T11:44:32;24.60;91.90
60293;DHT22;52402;52.670;6.750;2022-08-20T11:47:02;24.60;91.70
60293;DHT22;52402;52.670;6.750;2022-08-20T11:49:32;24.40;90.80
60293;DHT22;52402;52.670;6.750;2022-08-20T11:51:58;24.60;90.70
60293;DHT22;52402;52.670;6.750;2022-08-20T11:54:24;24.60;90.80
60293;DHT22;52402;52.670;6.750;2022-08-20T11:56:50;24.40;89.80
60293;DHT22;52402;52.670;6.750;2022-08-20T11:59:16;24.50;89.40
60293;DHT22;52402;52.670;6.750;2022-08-20T12:01:42;24.70;88.60
60293;DHT22;52402;52.670;6.750;2022-08-20T12:04:08;25.20;88.90
60293;DHT22;52402;52.670;6.750;2022-08-20T12:06:33;25.30;87.90
60293;DHT22;52402;52.670;6.750;2022-08-20T12:08:59;25.10;84.60
60293;DHT22;52402;52.670;6.750;2022-08-20T12:11:24;25.50;86.80
60293;DHT22;52402;52.670;6.750;2022-08-20T12:13:50;25.60;85.10
60293;DHT22;52402;52.670;6.750;2022-08-20T12:16:19;25.80;85.50
60293;DHT22;52402;52.670;6.750;2022-08-20T12:18:45;26.00;85.80
60293;DHT22;52402;52.670;6.750;2022-08-20T12:21:12;26.20;85.90
60293;DHT22;52402;52.670;6.750;2022-08-20T12:23:37;25.90;85.50
60293;DHT22;52402;52.670;6.750;2022-08-20T12:26:03;25.80;86.10
60293;DHT22;52402;52.670;6.750;2022-08-20T12:28:29;25.50;83.20
60293;DHT22;52402;52.670;6.750;2022-08-20T12:30:55;25.60;84.40
60293;DHT22;52402;52.670;6.750;2022-08-20T12:33:21;25.80;82.50
60293;DHT22;52402;52.670;6.750;2022-08-20T12:35:47;26.10;83.80
60293;DHT22;52402;52.670;6.750;2022-08-20T12:38:12;26.30;83.00
60293;DHT22;52402;52.670;6.750;2022-08-20T12:40:39;26.40;80.30
60293;DHT22;52402;52.670;6.750;2022-08-20T12:43:05;26.50;78.60
60293;DHT22;52402;52.670;6.750;2022-08-20T12:45:33;26.80;79.20
60293;DHT22;52402;52.670;6.750;2022-08-20T12:48:02;26.50;78.50
60293;DHT22;52402;52.670;6.750;2022-08-20T12:50:28;26.10;79.00
60293;DHT22;52402;52.670;6.750;2022-08-20T12:52:54;25.80;79.40
60293;DHT22;52402;52.670;6.750;2022-08-20T12:55:20;25.60;80.20
60293;DHT22;52402;52.670;6.750;2022-08-20T12:57:49;25.20;81.30
60293;DHT22;52402;52.670;6.750;2022-08-20T13:00:37;25.10;80.30
60293;DHT22;52402;52.670;6.750;2022-08-20T13:03:04;24.90;83.50
60293;DHT22;52402;52.670;6.750;2022-08-20T13:05:31;24.60;83.00
60293;DHT22;52402;52.670;6.750;2022-08-20T13:07:57;24.40;83.90
60293;DHT22;52402;52.670;6.750;2022-08-20T13:10:33;24.30;84.10
60293;DHT22;52402;52.670;6.750;2022-08-20T13:13:00;24.30;86.00
60293;DHT22;52402;52.670;6.750;2022-08-20T13:15:30;24.20;85.70
60293;DHT22;52402;52.670;6.750;2022-08-20T13:17:58;24.20;87.10
60293;DHT22;52402;52.670;6.750;2022-08-20T13:20:25;24.40;84.60
60293;DHT22;52402;52.670;6.750;2022-08-20T13:22:52;24.30;85.10
60293;DHT22;52402;52.670;6.750;2022-08-20T13:25:18;24.40;84.90
60293;DHT22;52402;52.670;6.750;2022-08-20T13:27:44;24.70;83.10
60293;DHT22;52402;52.670;6.750;2022-08-20T13:30:15;24.70;82.90
60293;DHT22;52402;52.670;6.750;2022-08-20T13:32:41;24.70;82.90
60293;DHT22;52402;52.670;6.750;2022-08-20T13:35:07;24.40;84.10
60293;DHT22;52402;52.670;6.750;2022-08-20T13:37:33;24.10;84.20
60293;DHT22;52402;52.670;6.750;2022-08-20T13:40:00;24.20;85.00
60293;DHT22;52402;52.670;6.750;2022-08-20T13:42:26;24.60;85.10
60293;DHT22;52402;52.670;6.750;2022-08-20T13:44:52;24.90;84.20
60293;DHT22;52402;52.670;6.750;2022-08-20T13:49:57;25.60;82.20
60293;DHT22;52402;52.670;6.750;2022-08-20T13:52:23;26.10;82.70
60293;DHT22;52402;52.670;6.750;2022-08-20T13:54:49;26.30;80.50
60293;DHT22;52402;52.670;6.750;2022-08-20T13:57:16;26.70;81.80
60293;DHT22;52402;52.670;6.750;2022-08-20T13:59:45;27.00;80.70
60293;DHT22;52402;52.670;6.750;2022-08-20T14:02:12;27.10;79.40
60293;DHT22;52402;52.670;6.750;2022-08-20T14:04:38;27.40;78.20
60293;DHT22;52402;52.670;6.750;2022-08-20T14:07:12;27.70;78.80
60293;DHT22;52402;52.670;6.750;2022-08-20T14:09:42;27.90;79.90
60293;DHT22;52402;52.670;6.750;2022-08-20T14:12:10;28.00;78.20
60293;DHT22;52402;52.670;6.750;2022-08-20T14:14:35;27.90;76.30
60293;DHT22;52402;52.670;6.750;2022-08-20T14:17:32;28.10;76.80
60293;DHT22;52402;52.670;6.750;2022-08-20T14:20:12;28.30;79.30
60293;DHT22;52402;52.670;6.750;2022-08-20T14:22:38;28.00;73.80
60293;DHT22;52402;52.670;6.750;2022-08-20T14:25:06;28.00;74.50
60293;DHT22;52402;52.670;6.750;2022-08-20T14:27:32;28.20;75.10
60293;DHT22;52402;52.670;6.750;2022-08-20T14:29:59;28.20;73.20
60293;DHT22;52402;52.670;6.750;2022-08-20T14:32:25;28.10;75.80
60293;DHT22;52402;52.670;6.750;2022-08-20T14:34:52;27.70;76.80
60293;DHT22;52402;52.670;6.750;2022-08-20T14:37:24;27.20;76.20
60293;DHT22;52402;52.670;6.750;2022-08-20T14:39:52;26.70;76.30
60293;DHT22;52402;52.670;6.750;2022-08-20T14:42:19;26.30;75.80
60293;DHT22;52402;52.670;6.750;2022-08-20T14:44:47;26.40;75.60
60293;DHT22;52402;52.670;6.750;2022-08-20T14:47:28;26.70;76.70
60293;DHT22;52402;52.670;6.750;2022-08-20T14:49:57;27.00;74.90
60293;DHT22;52402;52.670;6.750;2022-08-20T14:52:26;27.10;74.50
60293;DHT22;52402;52.670;6.750;2022-08-20T14:54:52;27.10;74.20
60293;DHT22;52402;52.670;6.750;2022-08-20T14:57:19;26.80;73.80
60293;DHT22;52402;52.670;6.750;2022-08-20T14:59:45;26.80;75.70
60293;DHT22;52402;52.670;6.750;2022-08-20T15:02:13;27.10;75.80
60293;DHT22;52402;52.670;6.750;2022-08-20T15:04:40;27.20;77.10
60293;DHT22;52402;52.670;6.750;2022-08-20T15:07:12;27.40;75.80
60293;DHT22;52402;52.670;6.750;2022-08-20T15:09:39;27.60;74.20
60293;DHT22;52402;52.670;6.750;2022-08-20T15:12:05;27.80;75.20
60293;DHT22;52402;52.670;6.750;2022-08-20T15:14:30;27.80;75.20
60293;DHT22;52402;52.670;6.750;2022-08-20T15:16:56;27.80;74.00
60293;DHT22;52402;52.670;6.750;2022-08-20T15:19:22;27.40;72.80
60293;DHT22;52402;52.670;6.750;2022-08-20T15:21:47;27.70;72.50
60293;DHT22;52402;52.670;6.750;2022-08-20T15:24:14;27.70;71.70
60293;DHT22;52402;52.670;6.750;2022-08-20T15:26:40;27.60;70.70
60293;DHT22;52402;52.670;6.750;2022-08-20T15:29:06;27.40;72.20
60293;DHT22;52402;52.670;6.750;2022-08-20T15:31:32;27.30;70.50
60293;DHT22;52402;52.670;6.750;2022-08-20T15:33:57;27.20;71.00
60293;DHT22;52402;52.670;6.750;2022-08-20T15:36:23;27.20;71.20
60293;DHT22;52402;52.670;6.750;2022-08-20T15:38:49;26.90;71.80